createdAt,value
2022-11-25T00:01:41.574Z,10.50
2022-11-25T00:04:10.304Z,10.60
2022-11-25T00:06:38.894Z,11.00
2022-11-25T00:09:11.061Z,11.40
2022-11-25T00:11:43.463Z,11.03
2022-11-25T00:14:16.478Z,10.50
2022-11-25T00:16:48.498Z,11.13
2022-11-25T00:19:17.482Z,10.90
2022-11-25T00:21:46.454Z,10.40
2022-11-25T00:24:17.600Z,11.03
2022-11-25T00:26:47.583Z,10.57
2022-11-25T00:29:16.394Z,11.30
2022-11-25T00:31:45.383Z,11.07
2022-11-25T00:34:15.748Z,11.00
2022-11-25T00:36:44.349Z,10.43
2022-11-25T00:39:15.964Z,11.30
2022-11-25T00:42:04.165Z,11.80
2022-11-25T00:44:37.504Z,10.83
2022-11-25T00:47:10.602Z,11.00
2022-11-25T00:49:40.412Z,11.00
2022-11-25T00:52:10.315Z,11.50
2022-11-25T00:54:38.927Z,10.93
2022-11-25T00:57:08.862Z,10.73
2022-11-25T00:59:37.469Z,10.70
2022-11-25T01:02:06.236Z,10.80
2022-11-25T01:04:35.480Z,11.33
2022-11-25T01:07:05.007Z,11.10
2022-11-25T01:09:33.831Z,11.20
2022-11-25T01:12:02.570Z,10.90
2022-11-25T01:14:34.838Z,10.73
2022-11-25T01:17:03.692Z,11.13
2022-11-25T01:19:38.411Z,10.60
2022-11-25T01:22:07.183Z,11.23
2022-11-25T01:24:36.836Z,11.57
2022-11-25T01:27:05.608Z,11.37
2022-11-25T01:29:35.547Z,11.13
2022-11-25T01:32:04.212Z,10.90
2022-11-25T01:34:34.702Z,10.80
2022-11-25T01:37:04.012Z,11.17
2022-11-25T01:39:33.472Z,11.00
2022-11-25T01:42:03.164Z,10.50
2022-11-25T01:44:34.917Z,11.70
2022-11-25T01:47:10.812Z,11.23
2022-11-25T01:49:43.518Z,10.70
2022-11-25T01:52:18.242Z,11.37
2022-11-25T01:54:55.689Z,10.70
2022-11-25T01:57:29.673Z,10.60
2022-11-25T02:00:04.014Z,10.93
2022-11-25T02:02:33.442Z,10.30
2022-11-25T02:05:05.623Z,10.40
2022-11-25T02:07:38.554Z,10.80
2022-11-25T02:10:13.924Z,10.43
2022-11-25T02:12:47.288Z,10.43
2022-11-25T02:15:18.384Z,10.30
2022-11-25T02:17:47.445Z,10.40
2022-11-25T02:20:18.618Z,10.00
2022-11-25T02:22:58.986Z,10.20
2022-11-25T02:25:32.919Z,10.67
2022-11-25T02:28:06.324Z,10.60
2022-11-25T02:30:35.446Z,10.60
2022-11-25T02:33:05.330Z,10.57
2022-11-25T02:35:37.426Z,10.30
2022-11-25T02:38:10.846Z,10.70
2022-11-25T02:40:50.499Z,11.07
2022-11-25T02:43:19.367Z,10.30
2022-11-25T02:45:58.303Z,11.00
2022-11-25T02:49:00.763Z,10.30
2022-11-25T02:51:24.518Z,11.03
2022-11-25T02:53:53.804Z,10.40
2022-11-25T02:56:28.059Z,10.83
2022-11-25T02:58:56.859Z,10.60
2022-11-25T03:01:28.357Z,11.00
2022-11-25T03:03:57.114Z,10.87
2022-11-25T03:06:25.785Z,11.17
2022-11-25T03:08:54.709Z,10.63
2022-11-25T03:11:45.419Z,11.10
2022-11-25T03:14:14.976Z,10.70
2022-11-25T03:16:44.872Z,11.10
2022-11-25T03:19:13.632Z,10.83
2022-11-25T03:21:42.355Z,10.40
2022-11-25T03:24:11.031Z,11.80
2022-11-25T03:26:40.976Z,10.53
2022-11-25T03:29:09.991Z,10.43
2022-11-25T03:31:40.685Z,10.40
2022-11-25T03:34:12.502Z,10.20
2022-11-25T03:36:41.394Z,11.00
2022-11-25T03:39:11.202Z,10.23
2022-11-25T03:41:41.443Z,11.13
2022-11-25T03:44:10.538Z,10.80
2022-11-25T03:46:40.252Z,11.37
2022-11-25T03:49:09.602Z,10.80
2022-11-25T03:51:38.481Z,10.37
2022-11-25T03:54:07.194Z,10.93
2022-11-25T03:56:57.136Z,10.47
2022-11-25T03:59:25.981Z,10.70
2022-11-25T04:01:54.720Z,10.80
2022-11-25T04:04:24.193Z,10.57
2022-11-25T04:06:52.762Z,11.23
2022-11-25T04:09:21.587Z,10.77
2022-11-25T04:12:08.150Z,10.00
2022-11-25T04:14:48.804Z,10.40
2022-11-25T04:17:17.444Z,10.70
2022-11-25T04:19:46.774Z,10.20
2022-11-25T04:22:15.401Z,11.13
2022-11-25T04:24:46.658Z,10.33
2022-11-25T04:27:20.445Z,10.20
2022-11-25T04:29:51.136Z,10.30
2022-11-25T04:32:20.620Z,11.23
2022-11-25T04:34:49.238Z,10.40
2022-11-25T04:37:18.002Z,10.43
2022-11-25T04:39:46.588Z,10.87
2022-11-25T04:42:36.478Z,10.50
2022-11-25T04:45:22.841Z,10.97
2022-11-25T04:47:53.885Z,10.83
2022-11-25T04:50:25.310Z,11.00
2022-11-25T04:53:00.913Z,10.47
2022-11-25T04:55:29.853Z,11.73
2022-11-25T04:57:59.279Z,10.60
2022-11-25T05:00:29.141Z,10.60
2022-11-25T05:02:59.159Z,10.77
2022-11-25T05:05:27.873Z,10.30
2022-11-25T05:07:57.562Z,11.67
2022-11-25T05:10:26.202Z,10.93
2022-11-25T05:12:54.879Z,11.17
2022-11-25T05:15:24.222Z,10.50
2022-11-25T05:17:56.083Z,10.83
2022-11-25T05:20:40.376Z,10.70
2022-11-25T05:23:09.501Z,10.57
2022-11-25T05:25:38.836Z,10.77
2022-11-25T05:28:43.239Z,10.70
2022-11-25T05:31:31.217Z,10.60
2022-11-25T05:34:02.931Z,10.60
2022-11-25T05:36:33.082Z,10.70
2022-11-25T05:39:02.198Z,10.90
2022-11-25T05:41:53.514Z,10.47
2022-11-25T05:44:23.282Z,10.73
2022-11-25T05:46:55.810Z,10.73
2022-11-25T05:49:25.476Z,11.63
2022-11-25T05:51:54.124Z,10.70
2022-11-25T05:54:25.603Z,10.50
2022-11-25T05:56:54.534Z,10.93
2022-11-25T05:59:29.199Z,10.30
2022-11-25T06:02:13.221Z,11.30
2022-11-25T06:04:42.495Z,11.10
2022-11-25T06:07:11.083Z,10.60
2022-11-25T06:09:41.073Z,10.50
2022-11-25T06:12:09.820Z,11.10
2022-11-25T06:14:45.037Z,10.80
2022-11-25T06:17:15.204Z,11.00
2022-11-25T06:19:50.206Z,11.53
2022-11-25T06:22:18.751Z,10.53
2022-11-25T06:24:54.402Z,10.73
2022-11-25T06:27:31.940Z,10.70
2022-11-25T06:30:14.229Z,11.20
2022-11-25T06:32:49.651Z,10.60
2022-11-25T06:35:23.479Z,11.03
2022-11-25T06:37:56.435Z,11.23
2022-11-25T06:40:24.984Z,10.37
2022-11-25T06:42:53.500Z,11.07
2022-11-25T06:45:22.200Z,10.50
2022-11-25T06:47:52.096Z,10.87
2022-11-25T06:50:20.612Z,10.97
2022-11-25T06:52:49.224Z,11.30
2022-11-25T06:55:17.948Z,11.20
2022-11-25T06:57:46.457Z,10.50
2022-11-25T07:00:16.609Z,11.00
2022-11-25T07:02:48.600Z,11.10
2022-11-25T07:05:18.915Z,11.53
2022-11-25T07:07:48.271Z,11.30
2022-11-25T07:10:17.058Z,11.47
2022-11-25T07:12:46.074Z,10.50
2022-11-25T07:15:14.711Z,12.00
2022-11-25T07:17:43.227Z,11.97
2022-11-25T07:20:12.958Z,11.30
2022-11-25T07:22:42.850Z,11.20
2022-11-25T07:25:11.648Z,13.37
2022-11-25T07:27:40.274Z,12.63
2022-11-25T07:31:09.468Z,12.50
2022-11-25T07:32:59.421Z,12.17
2022-11-25T07:35:27.998Z,12.20
2022-11-25T07:37:58.163Z,12.27
2022-11-25T07:40:26.800Z,11.37
2022-11-25T07:42:55.698Z,11.50
2022-11-25T07:45:24.523Z,11.53
2022-11-25T07:48:01.926Z,11.90
2022-11-25T07:50:30.608Z,11.60
2022-11-25T07:53:00.747Z,12.00
2022-11-25T07:55:29.340Z,11.90
2022-11-25T07:58:00.601Z,11.30
2022-11-25T08:00:29.223Z,11.00
2022-11-25T08:02:57.808Z,11.30
2022-11-25T08:05:26.367Z,11.77
2022-11-25T08:08:16.651Z,12.20
2022-11-25T08:10:45.213Z,11.97
2022-11-25T08:13:13.797Z,11.20
2022-11-25T08:15:42.538Z,11.40
2022-11-25T08:18:11.098Z,11.47
2022-11-25T08:20:39.717Z,11.43
2022-11-25T08:23:08.370Z,11.70
2022-11-25T08:25:44.965Z,10.60
2022-11-25T08:28:16.065Z,11.37
2022-11-25T08:30:44.628Z,10.60
2022-11-25T08:33:13.135Z,11.27
2022-11-25T08:35:41.736Z,11.13
2022-11-25T08:38:12.929Z,10.67
2022-11-25T08:40:46.789Z,10.60
2022-11-25T08:43:15.471Z,11.00
2022-11-25T08:45:44.094Z,11.50
2022-11-25T08:48:12.674Z,10.67
2022-11-25T08:50:49.053Z,11.20
2022-11-25T08:53:18.655Z,10.43
2022-11-25T08:55:49.453Z,10.90
2022-11-25T08:58:17.996Z,10.50
2022-11-25T09:00:47.050Z,10.40
2022-11-25T09:03:15.659Z,10.53
2022-11-25T09:05:45.561Z,10.97
2022-11-25T09:08:14.807Z,10.67
2022-11-25T09:10:43.630Z,11.67
2022-11-25T09:13:13.598Z,11.23
2022-11-25T09:15:42.195Z,11.60
2022-11-25T09:18:12.272Z,11.27
2022-11-25T09:20:42.518Z,11.20
2022-11-25T09:23:11.287Z,10.70
2022-11-25T09:25:40.002Z,10.87
2022-11-25T09:28:08.547Z,11.00
2022-11-25T09:30:39.655Z,10.83
2022-11-25T09:33:08.195Z,11.50
2022-11-25T09:35:38.187Z,11.07
2022-11-25T09:38:06.732Z,10.83
2022-11-25T09:40:44.638Z,10.83
2022-11-25T09:43:47.604Z,10.47
2022-11-25T09:46:43.552Z,11.00
2022-11-25T09:49:30.793Z,11.20
2022-11-25T09:52:13.575Z,11.17
2022-11-25T09:54:46.394Z,10.87
2022-11-25T09:57:24.443Z,10.77
2022-11-25T10:00:07.008Z,10.87
2022-11-25T10:02:56.877Z,11.60
2022-11-25T10:05:30.889Z,10.60
2022-11-25T10:08:08.633Z,10.90
2022-11-25T10:10:45.204Z,11.47
2022-11-25T10:13:23.139Z,11.13
2022-11-25T10:15:53.080Z,11.27
2022-11-25T10:18:28.784Z,11.00
2022-11-25T10:20:57.409Z,10.73
2022-11-25T10:23:29.291Z,11.00
2022-11-25T10:26:02.817Z,11.20
2022-11-25T10:28:35.132Z,11.13
2022-11-25T10:31:08.454Z,11.00
2022-11-25T10:33:45.425Z,11.70
2022-11-25T10:36:19.962Z,10.67
2022-11-25T10:38:58.231Z,11.13
2022-11-25T10:41:32.082Z,11.30
2022-11-25T10:44:00.658Z,10.73
2022-11-25T10:47:11.681Z,11.00
2022-11-25T10:49:37.611Z,11.30
2022-11-25T10:52:13.853Z,11.07
2022-11-25T10:54:42.936Z,10.73
2022-11-25T10:57:21.342Z,11.30
2022-11-25T10:59:58.849Z,10.60
2022-11-25T11:02:29.971Z,10.70
2022-11-25T11:05:18.351Z,11.20
2022-11-25T11:07:48.600Z,11.00
2022-11-25T11:10:22.285Z,10.43
2022-11-25T11:13:00.729Z,10.80
2022-11-25T11:15:31.829Z,10.97
2022-11-25T11:18:15.092Z,10.83
2022-11-25T11:20:50.450Z,10.10
2022-11-25T11:23:20.321Z,10.40
2022-11-25T11:25:59.592Z,10.33
2022-11-25T11:28:38.776Z,11.17
2022-11-25T11:31:18.809Z,10.70
2022-11-25T11:33:59.422Z,10.00
2022-11-25T11:36:46.628Z,10.30
2022-11-25T11:40:00.251Z,10.83
2022-11-25T11:42:41.758Z,10.27
2022-11-25T11:45:30.083Z,10.50
2022-11-25T11:48:14.164Z,10.13
2022-11-25T11:50:48.284Z,10.20
2022-11-25T11:53:26.708Z,10.03
2022-11-25T11:59:17.289Z,9.67
2022-11-25T12:02:03.054Z,10.40
2022-11-25T12:04:41.227Z,10.07
2022-11-25T12:07:21.593Z,10.03
2022-11-25T12:09:58.315Z,9.93
2022-11-25T12:12:35.187Z,9.80
2022-11-25T12:15:14.137Z,9.47
2022-11-25T12:17:48.180Z,10.30
2022-11-25T12:20:26.794Z,10.00
2022-11-25T12:23:03.812Z,9.93
2022-11-25T12:25:38.978Z,9.93
2022-11-25T12:28:12.322Z,10.10
2022-11-25T12:30:57.492Z,9.40
2022-11-25T12:33:43.690Z,9.83
2022-11-25T12:36:18.243Z,9.30
2022-11-25T12:38:53.354Z,9.90
2022-11-25T12:41:30.913Z,9.70
2022-11-25T12:44:05.570Z,10.50
2022-11-25T12:46:41.213Z,9.40
2022-11-25T12:49:20.087Z,10.20
2022-11-25T12:52:26.421Z,9.40
2022-11-25T12:55:12.394Z,10.43
2022-11-25T12:58:23.925Z,9.80
2022-11-25T13:01:44.316Z,9.90
2022-11-25T13:04:58.039Z,9.27
2022-11-25T13:07:42.631Z,9.90
2022-11-25T13:10:29.668Z,9.80
2022-11-25T13:13:28.857Z,9.83
2022-11-25T13:16:00.742Z,9.73
2022-11-25T13:18:34.070Z,10.00
2022-11-25T13:21:09.296Z,10.40
2022-11-25T13:23:53.358Z,10.00
2022-11-25T13:26:55.047Z,9.23
2022-11-25T13:30:04.127Z,9.80
2022-11-25T13:32:43.372Z,9.70
2022-11-25T13:35:48.313Z,9.60
2022-11-25T13:39:00.969Z,9.40
2022-11-25T13:41:46.974Z,10.20
2022-11-25T13:44:28.155Z,10.00
2022-11-25T13:46:59.662Z,9.87
2022-11-25T13:49:37.405Z,10.13
2022-11-25T13:52:31.926Z,9.80
2022-11-25T13:55:06.547Z,9.33
2022-11-25T13:57:36.223Z,10.40
2022-11-25T14:00:10.286Z,10.03
2022-11-25T14:02:49.438Z,9.77
2022-11-25T14:06:05.112Z,9.67
2022-11-25T14:08:43.282Z,9.70
2022-11-25T14:11:52.716Z,9.77
2022-11-25T14:14:54.139Z,10.07
2022-11-25T14:17:53.505Z,10.10
2022-11-25T14:20:41.308Z,10.10
2022-11-25T14:23:42.435Z,10.47
2022-11-25T14:26:34.132Z,9.50
2022-11-25T14:29:06.330Z,10.20
2022-11-25T14:31:41.738Z,9.90
2022-11-25T14:34:19.222Z,9.80
2022-11-25T14:36:52.231Z,10.27
2022-11-25T14:39:27.652Z,10.00
2022-11-25T14:42:04.272Z,9.57
2022-11-25T14:44:39.448Z,9.70
2022-11-25T14:47:08.125Z,9.80
2022-11-25T14:50:05.263Z,9.40
2022-11-25T14:52:38.686Z,9.73
2022-11-25T14:55:08.864Z,10.50
2022-11-25T14:57:41.729Z,9.60
2022-11-25T15:00:15.478Z,10.27
2022-11-25T15:02:56.410Z,10.10
2022-11-25T15:05:33.155Z,10.33
2022-11-25T15:08:04.476Z,10.27
2022-11-25T15:10:37.899Z,9.93
2022-11-25T15:13:15.384Z,10.40
2022-11-25T15:15:47.207Z,10.53
2022-11-25T15:18:22.195Z,9.90
2022-11-25T15:20:58.740Z,10.40
2022-11-25T15:23:32.047Z,11.03
2022-11-25T15:26:01.251Z,9.97
2022-11-25T15:28:36.798Z,10.53
2022-11-25T15:31:13.351Z,10.23
2022-11-25T15:33:42.961Z,10.10
2022-11-25T15:36:13.059Z,10.90
2022-11-25T15:38:44.695Z,10.13
2022-11-25T15:41:23.073Z,10.40
2022-11-25T15:43:55.902Z,10.30
2022-11-25T15:46:26.546Z,10.10
2022-11-25T15:48:59.063Z,9.97
2022-11-25T15:51:36.798Z,10.47
2022-11-25T15:54:14.407Z,10.80
2022-11-25T15:56:49.065Z,10.30
2022-11-25T15:59:47.747Z,10.50
2022-11-25T16:02:37.259Z,10.03
2022-11-25T16:05:37.162Z,10.73
2022-11-25T16:08:38.302Z,10.60
2022-11-25T16:11:18.470Z,10.67
2022-11-25T16:13:48.615Z,10.80
2022-11-25T16:16:26.718Z,10.57
2022-11-25T16:19:15.265Z,10.53
2022-11-25T16:21:52.272Z,11.13
2022-11-25T16:24:38.380Z,10.17
2022-11-25T16:27:17.299Z,10.83
2022-11-25T16:29:56.315Z,10.37
2022-11-25T16:32:28.697Z,10.90
2022-11-25T16:35:15.392Z,10.53
2022-11-25T16:37:48.806Z,10.87
2022-11-25T16:40:20.223Z,10.93
2022-11-25T16:42:51.792Z,10.97
2022-11-25T16:45:23.278Z,10.60
2022-11-25T16:47:52.139Z,11.27
2022-11-25T16:50:22.393Z,10.77
2022-11-25T16:52:51.168Z,10.57
2022-11-25T16:55:21.150Z,11.03
2022-11-25T16:57:50.633Z,11.20
2022-11-25T17:00:19.831Z,10.57
2022-11-25T17:02:48.422Z,10.87
2022-11-25T17:05:20.219Z,11.30
2022-11-25T17:07:50.386Z,11.23
2022-11-25T17:10:22.018Z,11.07
2022-11-25T17:12:51.167Z,11.33
2022-11-25T17:15:25.205Z,10.80
2022-11-25T17:17:54.070Z,10.60
2022-11-25T17:20:25.694Z,10.77
2022-11-25T17:22:55.401Z,10.57
2022-11-25T17:25:33.690Z,11.27
2022-11-25T17:28:04.011Z,10.40
2022-11-25T17:30:32.720Z,10.83
2022-11-25T17:33:07.928Z,10.63
2022-11-25T17:35:36.701Z,11.00
2022-11-25T17:38:14.609Z,10.53
2022-11-25T17:40:45.704Z,10.83
2022-11-25T17:43:17.119Z,10.30
2022-11-25T17:45:47.569Z,10.80
2022-11-25T17:48:18.932Z,10.40
2022-11-25T17:50:48.086Z,11.10
2022-11-25T17:53:16.888Z,10.53
2022-11-25T17:55:47.043Z,10.97
2022-11-25T17:58:19.300Z,10.67
2022-11-25T18:00:49.008Z,10.90
2022-11-25T18:03:18.726Z,11.17
2022-11-25T18:05:47.427Z,10.30
2022-11-25T18:08:16.073Z,10.63
2022-11-25T18:10:48.710Z,10.63
2022-11-25T18:13:18.003Z,10.30
2022-11-25T18:15:47.237Z,11.10
2022-11-25T18:18:21.883Z,10.60
2022-11-25T18:20:50.678Z,10.73
2022-11-25T18:23:19.722Z,11.03
2022-11-25T18:25:50.153Z,11.07
2022-11-25T18:28:23.064Z,10.60
2022-11-25T18:30:54.470Z,10.73
2022-11-25T18:33:23.349Z,10.50
2022-11-25T18:35:52.112Z,10.57
2022-11-25T18:38:20.896Z,11.00
2022-11-25T18:40:53.826Z,11.10
2022-11-25T18:43:26.228Z,10.70
2022-11-25T18:45:55.855Z,11.40
2022-11-25T18:48:27.100Z,10.63
2022-11-25T18:50:57.582Z,10.20
2022-11-25T18:53:26.412Z,10.67
2022-11-25T18:55:56.608Z,10.80
2022-11-25T18:58:28.236Z,10.70
2022-11-25T19:01:03.709Z,10.87
2022-11-25T19:03:33.348Z,10.40
2022-11-25T19:06:03.371Z,10.67
2022-11-25T19:08:32.198Z,11.43
2022-11-25T19:11:02.425Z,10.80
2022-11-25T19:13:35.239Z,11.10
2022-11-25T19:16:11.906Z,11.10
2022-11-25T19:18:41.139Z,11.03
2022-11-25T19:21:15.894Z,10.20
2022-11-25T19:24:13.330Z,11.30
2022-11-25T19:26:47.014Z,11.27
2022-11-25T19:29:21.370Z,11.53
2022-11-25T19:31:51.235Z,11.33
2022-11-25T19:34:28.658Z,10.93
2022-11-25T19:36:57.289Z,11.00
2022-11-25T19:39:25.888Z,11.00
2022-11-25T19:41:55.889Z,11.33
2022-11-25T19:44:24.514Z,10.57
2022-11-25T19:47:14.286Z,10.50
2022-11-25T19:49:42.308Z,10.00
2022-11-25T19:52:18.672Z,11.37
2022-11-25T19:54:47.372Z,10.87
2022-11-25T19:57:19.722Z,11.03
2022-11-25T19:59:48.810Z,10.60
2022-11-25T20:02:22.516Z,10.87
2022-11-25T20:04:55.711Z,11.00
2022-11-25T20:07:24.737Z,11.00
2022-11-25T20:09:53.629Z,10.70
2022-11-25T20:12:26.494Z,10.60
2022-11-25T20:14:55.347Z,10.10
2022-11-25T20:17:28.398Z,10.63
2022-11-25T20:20:00.516Z,10.63
2022-11-25T20:22:34.408Z,10.90
2022-11-25T20:25:05.777Z,10.50
2022-11-25T20:27:35.865Z,10.57
2022-11-25T20:30:07.868Z,10.10
2022-11-25T20:32:36.458Z,10.07
2022-11-25T20:35:05.320Z,10.23
2022-11-25T20:37:50.510Z,10.30
2022-11-25T20:40:23.317Z,10.07
2022-11-25T20:42:55.040Z,10.20
2022-11-25T20:45:24.448Z,10.87
2022-11-25T20:47:53.080Z,11.13
2022-11-25T20:50:23.072Z,10.83
2022-11-25T20:52:52.027Z,11.70
2022-11-25T20:55:23.849Z,11.23
2022-11-25T20:57:54.347Z,11.37
2022-11-25T21:00:26.578Z,13.60
2022-11-25T21:02:57.407Z,21.80
2022-11-25T21:05:27.836Z,24.90
2022-11-25T21:07:56.690Z,37.40
2022-11-25T21:10:28.506Z,28.43
2022-11-25T21:12:58.620Z,30.07
2022-11-25T21:15:29.327Z,28.37
2022-11-25T21:17:59.680Z,28.37
2022-11-25T21:20:28.306Z,24.43
2022-11-25T21:23:05.526Z,17.10
2022-11-25T21:25:35.793Z,15.20
2022-11-25T21:28:06.256Z,18.63
2022-11-25T21:30:34.874Z,15.03
2022-11-25T21:33:03.412Z,15.73
2022-11-25T21:35:34.646Z,13.70
2022-11-25T21:38:06.965Z,13.50
2022-11-25T21:40:40.894Z,11.90
2022-11-25T21:43:21.512Z,11.10
2022-11-25T21:45:53.924Z,10.73
2022-11-25T21:48:25.215Z,11.60
2022-11-25T21:50:54.115Z,11.27
2022-11-25T21:53:23.022Z,11.10
2022-11-25T21:55:52.126Z,11.20
2022-11-25T21:58:27.200Z,10.70
2022-11-25T22:00:58.418Z,10.93
2022-11-25T22:03:31.840Z,11.03
2022-11-25T22:06:00.682Z,11.60
2022-11-25T22:08:29.286Z,10.67
2022-11-25T22:10:58.070Z,10.30
2022-11-25T22:13:35.235Z,10.80
2022-11-25T22:16:04.540Z,11.23
2022-11-25T22:18:36.438Z,10.40
2022-11-25T22:21:05.750Z,10.10
2022-11-25T22:23:34.556Z,11.30
2022-11-25T22:26:05.629Z,11.13
2022-11-25T22:28:37.357Z,10.27
2022-11-25T22:31:09.216Z,11.00
2022-11-25T22:33:38.777Z,10.90
2022-11-25T22:36:07.958Z,10.47
2022-11-25T22:38:36.501Z,11.57
2022-11-25T22:41:06.037Z,10.87
2022-11-25T22:43:40.960Z,11.07
2022-11-25T22:46:11.576Z,11.20
2022-11-25T22:48:40.772Z,11.50
2022-11-25T22:51:18.136Z,10.60
2022-11-25T22:53:46.780Z,10.93
2022-11-25T22:56:19.007Z,11.10
2022-11-25T22:58:49.011Z,10.63
2022-11-25T23:01:18.568Z,10.50
2022-11-25T23:03:47.312Z,10.83
2022-11-25T23:06:15.895Z,9.87
2022-11-25T23:08:44.437Z,10.47
2022-11-25T23:11:17.742Z,11.10
2022-11-25T23:13:48.714Z,11.13
2022-11-25T23:16:18.790Z,10.30
2022-11-25T23:18:48.269Z,10.00
2022-11-25T23:21:21.007Z,10.17
2022-11-25T23:23:50.123Z,10.70
2022-11-25T23:26:19.222Z,10.27
2022-11-25T23:28:48.147Z,10.37
2022-11-25T23:31:19.528Z,10.23
2022-11-25T23:33:51.501Z,10.27
2022-11-25T23:36:26.911Z,11.03
2022-11-25T23:38:58.681Z,10.00
2022-11-25T23:41:30.111Z,10.00
2022-11-25T23:43:59.905Z,10.43
2022-11-25T23:46:36.224Z,10.33
2022-11-25T23:49:05.830Z,10.80
2022-11-25T23:51:34.460Z,10.40
2022-11-25T23:54:03.116Z,10.63
2022-11-25T23:56:31.792Z,10.47
2022-11-25T23:59:01.190Z,10.63
